Terminal Aerodrome Forecast
Issued by NWS Cheyenne, WY

Home | Current Version | Previous Version | Text Only | Print | Product List | Glossary On
Versions: 1 2 3 4 5 6 7 8 9 10 11 12 13 14 15 16 17 18 19 20 21 22 23 24 25 26 27 28
000
FTUS45 KCYS 181458 AAA
TAFCYS
TAF AMD
KCYS 181458Z 1815/1912 28015G25KT P6SM SCT050 WS020/29045KT
     FM181600 29015G25KT P6SM BKN200
     FM190000 29010KT P6SM SCT200=

USA.gov is the U.S. government's official web portal to all federal, state and local government web resources and services.